Hauptseite
METAR-TAF:

METAR-TAF

Flughäfen :

Qurayyat, Saudi-Arabien

Breite: 31-24N, Länge: 037-16E, Höhe: 509 m

Beobachtung

Neuester Wetterbericht von vor 30 Minuten, um 22:00 UTC
Windstille
Temperatur 5°C
Luftfeuchtigkeit 70%
Luftdruck 1029 hPa
Sichtweite 10 km oder mehr
keine Wolken unter 1500 m und keine Kumulonimbus oder Gewitterwolken

METAR: OEGT 252200Z 00000KT CAVOK 05/00 Q1029 NOSIG

Zeit: 01:30 (22:30 UTC)

Prognose

Neuester Wetterbericht von vor 11 Stunden und 30 Minuten, um 11:00 UTC
Gültige Prognose vom 25 um 12 UTC bis 26 um 18 UTC
Wind 10 kt aus Nord/Nordwest
Sichtweite: 8000 m
Wahrscheinlichkeit 30% :
Zeitweise
vom 25 um 22 UTC bis 26 um 12 UTC
Wind 3 kt aus unterschiedlichen Richtungen
Sichtweite: 4000 m
feuchter Dunst

TAF: OEGT 251100Z 2512/2618 34010KT 8000 NSC PROB30 TEMPO 2522/2612 VRB03KT 4000 BR

Wetterbeobachtungen und Prognosen von mehr als 4000 Flughäfen (METAR und TAF Bericht).

Die verfügbaren Stationen werden durch gelbe und rote Markierungen auf der Karte dargestellt.

Führen Sie die Maus auf sie, um den Namen der Station zu sehen.

Darauf klicken, um die Beobachtung von Wetterbeobachtungen und Prognosen zu sehen.

Um die Karte zu ändern : klicken Sie auf den grünen Tasten mit einem schwarzen Kreuz Zum Vergrößern, auf den grünen Button mit einem Gedankenstrich zu verkleinern, oder auf die grünen Pfeile für benachbarte Karten.


METAR-TAF: